Time;durP1;ratioP1;P1;durP2;ratioP2;P2;SDS_P1;SDS_P2;PMS_P1;PMS_P2;Temp;Humidity;BMP_temperature;BMP_pressure;BME280_temperature;BME280_humidity;BME280_pressure;Samples;Min_cycle;Max_cycle;Signal;HPM_P1;HPM_P2
2022/03/27 00:00:19;;;;;;;40.30;36.40;;;;;;;6.07;76.04;99118.51;106351;1276;22741;-83
2022/03/27 00:03:07;;;;;;;40.90;37.10;;;;;;;6.06;75.64;99123.95;106223;1276;25257;-86
2022/03/27 00:05:35;;;;;;;36.40;32.70;;;;;;;6.04;75.92;99123.90;106286;1274;22665;-84
2022/03/27 00:08:04;;;;;;;30.10;27.30;;;;;;;5.96;75.58;99124.01;106370;1274;22552;-86
2022/03/27 00:11:23;;;;;;;31.00;28.10;;;;;;;5.89;74.97;99130.33;106826;1274;22614;-83
2022/03/27 00:13:21;;;;;;;35.30;31.90;;;;;;;5.83;74.53;99135.88;106539;1274;24329;-86
2022/03/27 00:15:49;;;;;;;31.30;28.30;;;;;;;5.79;74.45;99140.40;106339;1274;22625;-84
2022/03/27 00:18:17;;;;;;;20.80;18.70;;;;;;;5.71;73.34;99139.17;106130;1274;26645;-87
2022/03/27 00:20:45;;;;;;;16.60;14.90;;;;;;;5.61;72.04;99141.31;106311;1274;24356;-83
2022/03/27 00:23:13;;;;;;;13.30;10.10;;;;;;;5.46;68.57;99150.15;106512;1274;25378;-87
2022/03/27 00:25:41;;;;;;;11.60;9.60;;;;;;;5.30;64.86;99154.98;106267;1275;22619;-87
2022/03/27 00:28:08;;;;;;;10.30;8.70;;;;;;;5.14;65.71;99152.64;106797;1272;22566;-89
2022/03/27 00:30:37;;;;;;;9.60;6.50;;;;;;;4.95;59.48;99156.55;107757;1274;205240;-87
2022/03/27 00:33:32;;;;;;;7.70;6.00;;;;;;;4.80;56.24;99162.99;108316;1274;24436;-87
2022/03/27 00:36:02;;;;;;;12.40;6.70;;;;;;;4.69;60.29;99167.01;107857;1274;22712;-84
2022/03/27 00:38:32;;;;;;;9.70;6.70;;;;;;;4.54;62.67;99154.70;108259;1274;22924;-84
2022/03/27 00:45:38;;;;;;;7.00;5.40;;;;;;;4.30;56.48;99172.53;108026;1274;24732;-83
2022/03/27 00:48:07;;;;;;;8.70;6.00;;;;;;;4.24;58.82;99171.25;108332;1274;25410;-82
2022/03/27 00:55:08;;;;;;;11.60;6.20;;;;;;;4.00;58.04;99184.46;106283;1274;22757;-83
2022/03/27 00:57:36;;;;;;;10.00;6.20;;;;;;;3.92;60.07;99176.48;106309;1274;22495;-83
2022/03/27 01:04:55;;;;;;;9.70;6.50;;;;;;;3.66;58.51;99184.36;106606;1274;22824;-86
2022/03/27 01:07:23;;;;;;;11.10;7.20;;;;;;;3.56;58.25;99186.35;106865;1274;24213;-83
2022/03/27 01:14:33;;;;;;;12.10;8.00;;;;;;;3.34;60.37;99188.62;106382;1274;24260;-83
2022/03/27 01:17:10;;;;;;;11.70;8.50;;;;;;;3.53;60.97;99188.92;106878;1274;25258;-88
2022/03/27 01:19:41;;;;;;;10.40;8.70;;;;;;;3.50;60.87;99197.41;106916;1274;22610;-91
2022/03/27 01:29:34;;;;;;;13.80;8.30;;;;;;;3.08;59.96;99205.21;104253;1284;1010165;-77
2022/03/27 01:32:04;;;;;;;8.60;6.50;;;;;;;2.95;59.96;99205.97;105654;1283;25526;-78
2022/03/27 01:34:33;;;;;;;9.90;6.90;;;;;;;2.82;59.72;99211.48;105521;1283;22703;-81
2022/03/27 01:37:07;;;;;;;11.50;7.10;;;;;;;2.69;59.15;99214.84;105726;1283;22589;-82
2022/03/27 01:39:37;;;;;;;10.60;7.20;;;;;;;2.57;58.99;99215.58;105669;1283;22560;-84
2022/03/27 01:42:06;;;;;;;13.60;7.60;;;;;;;2.44;59.27;99219.73;105656;1283;24228;-85
2022/03/27 01:44:34;;;;;;;11.10;7.50;;;;;;;2.32;59.21;99218.41;105624;1283;24237;-83
2022/03/27 01:47:02;;;;;;;13.50;7.90;;;;;;;2.21;59.01;99216.39;105654;1283;22585;-83
2022/03/27 01:49:30;;;;;;;11.20;8.60;;;;;;;2.09;58.72;99220.36;105780;1283;22553;-82
2022/03/27 01:51:58;;;;;;;13.30;9.30;;;;;;;1.98;57.68;99219.91;105691;1283;24375;-82
2022/03/27 01:54:26;;;;;;;10.50;8.70;;;;;;;1.90;58.01;99222.20;105435;1283;22579;-82
2022/03/27 01:56:53;;;;;;;12.80;9.70;;;;;;;1.82;58.25;99218.95;105548;1282;25620;-81
2022/03/27 01:59:22;;;;;;;12.10;9.90;;;;;;;1.74;58.25;99221.23;105604;1283;23231;-82
2022/03/27 02:01:50;;;;;;;15.00;9.50;;;;;;;1.66;58.67;99221.33;105555;1283;22813;-84
2022/03/27 02:04:18;;;;;;;13.10;10.30;;;;;;;1.57;58.68;99222.33;105617;1283;22708;-82
2022/03/27 02:06:46;;;;;;;11.50;10.20;;;;;;;1.49;58.86;99227.41;105538;1283;24235;-82
2022/03/27 02:09:14;;;;;;;14.50;10.30;;;;;;;1.40;58.77;99228.81;105583;1283;22618;-84
2022/03/27 02:11:43;;;;;;;11.50;9.80;;;;;;;1.29;58.81;99236.09;105622;1283;22710;-82
2022/03/27 02:14:11;;;;;;;12.80;9.60;;;;;;;1.19;58.81;99236.06;105643;1283;22680;-82
2022/03/27 02:16:39;;;;;;;13.60;10.50;;;;;;;1.09;58.93;99236.95;105618;1283;23019;-82
2022/03/27 02:19:09;;;;;;;12.10;9.30;;;;;;;1.00;58.67;99241.34;105278;1283;24266;-84
2022/03/27 02:21:39;;;;;;;12.90;9.10;;;;;;;0.91;58.83;99236.55;105579;1283;24305;-83
2022/03/27 02:24:08;;;;;;;14.30;8.40;;;;;;;0.82;58.81;99241.19;105525;1283;23780;-83
2022/03/27 02:26:44;;;;;;;11.20;8.60;;;;;;;0.74;58.81;99245.95;105543;1283;22884;-83
2022/03/27 02:29:15;;;;;;;12.80;11.50;;;;;;;0.67;58.95;99254.89;105391;1283;25261;-83
2022/03/27 02:31:44;;;;;;;11.90;10.30;;;;;;;0.59;58.85;99257.35;105309;1284;23110;-82
2022/03/27 02:34:14;;;;;;;12.40;9.30;;;;;;;0.53;59.04;99259.55;105226;1284;25375;-82
2022/03/27 02:36:43;;;;;;;12.30;9.50;;;;;;;0.48;59.04;99257.20;105386;1284;24245;-82
2022/03/27 02:39:11;;;;;;;10.10;8.80;;;;;;;0.44;59.04;99259.60;105301;1284;22755;-83
2022/03/27 02:41:45;;;;;;;15.30;11.80;;;;;;;0.40;59.14;99262.24;105407;1284;22652;-82
2022/03/27 02:44:14;;;;;;;12.90;9.90;;;;;;;0.37;59.16;99271.21;105837;1283;22602;-82
2022/03/27 02:46:43;;;;;;;14.30;10.40;;;;;;;0.34;59.14;99269.80;105815;1284;22664;-82
2022/03/27 02:49:11;;;;;;;19.60;17.60;;;;;;;0.32;59.14;99270.21;105170;1284;22590;-82
2022/03/27 02:51:40;;;;;;;21.80;14.90;;;;;;;0.30;59.39;99270.45;105316;1284;22736;-83
2022/03/27 02:54:08;;;;;;;17.10;15.10;;;;;;;0.28;59.26;99274.40;105537;1283;22618;-83
2022/03/27 02:56:36;;;;;;;16.90;15.10;;;;;;;0.26;59.38;99279.27;105499;1284;25248;-83
2022/03/27 02:59:05;;;;;;;19.50;13.90;;;;;;;0.24;59.31;99276.79;105781;1284;22546;-81
2022/03/27 03:01:33;;;;;;;20.30;15.80;;;;;;;0.22;59.36;99276.08;105504;1284;25338;-82
2022/03/27 03:04:02;;;;;;;19.50;17.20;;;;;;;0.19;59.38;99276.08;105114;1286;22620;-82
2022/03/27 03:06:32;;;;;;;20.90;16.00;;;;;;;0.15;59.45;99278.00;105338;1284;22549;-83
2022/03/27 03:09:01;;;;;;;21.10;18.80;;;;;;;0.12;59.36;99280.57;105400;1284;24459;-82
2022/03/27 03:11:29;;;;;;;30.30;25.90;;;;;;;0.07;59.53;99287.60;105241;1286;22574;-84
2022/03/27 03:13:57;;;;;;;27.70;23.70;;;;;;;0.01;59.43;99290.45;105731;1284;22708;-83
2022/03/27 03:16:46;;;;;;;18.30;16.40;;;;;;;-0.09;59.41;99290.16;105380;1284;22716;-82
2022/03/27 03:19:15;;;;;;;18.50;15.00;;;;;;;-0.17;59.63;99291.91;105361;1284;25522;-81
2022/03/27 03:21:43;;;;;;;17.70;12.00;;;;;;;-0.25;59.96;99286.54;105294;1284;24328;-81
2022/03/27 03:24:11;;;;;;;17.40;15.60;;;;;;;-0.29;59.91;99287.19;105288;1284;22575;-81
2022/03/27 03:26:39;;;;;;;15.60;14.00;;;;;;;-0.33;59.92;99284.52;105366;1284;25421;-81
2022/03/27 03:29:07;;;;;;;16.20;13.50;;;;;;;-0.38;59.83;99288.28;105372;1284;22573;-82
2022/03/27 03:31:35;;;;;;;29.20;22.60;;;;;;;-0.42;59.93;99288.87;105397;1284;25400;-82
2022/03/27 03:34:03;;;;;;;24.10;20.00;;;;;;;-0.46;59.88;99293.96;105362;1284;22555;-82
2022/03/27 03:36:36;;;;;;;23.20;18.00;;;;;;;-0.52;59.90;99289.52;105375;1284;25535;-82
2022/03/27 03:39:04;;;;;;;22.60;18.70;;;;;;;-0.56;59.99;99291.52;105455;1284;22823;-82
2022/03/27 03:41:32;;;;;;;15.00;12.80;;;;;;;-0.62;60.03;99292.79;105456;1284;24415;-82
2022/03/27 03:44:20;;;;;;;22.30;20.00;;;;;;;-0.69;60.69;99291.88;105429;1284;22703;-81
2022/03/27 03:46:48;;;;;;;23.40;21.00;;;;;;;-0.72;60.56;99288.60;105149;1284;25355;-84
2022/03/27 03:49:16;;;;;;;25.70;22.90;;;;;;;-0.76;60.44;99287.91;105397;1284;23386;-82
2022/03/27 03:51:44;;;;;;;20.90;18.80;;;;;;;-0.78;60.30;99292.53;105396;1284;22666;-82
2022/03/27 03:54:13;;;;;;;21.40;19.20;;;;;;;-0.83;60.38;99295.55;105441;1284;22625;-82
2022/03/27 03:56:41;;;;;;;17.40;14.00;;;;;;;-0.85;60.51;99301.51;105410;1284;22822;-83
2022/03/27 03:59:09;;;;;;;18.50;14.00;;;;;;;-0.87;60.52;99304.73;105349;1284;25526;-81
2022/03/27 04:01:55;;;;;;;21.20;19.00;;;;;;;-0.87;60.49;99301.26;105259;1285;24387;-81
2022/03/27 04:04:24;;;;;;;18.60;14.50;;;;;;;-0.89;60.61;99300.95;105318;1284;22560;-81
2022/03/27 04:06:52;;;;;;;19.30;14.30;;;;;;;-0.94;60.57;99296.71;105398;1284;22642;-82
2022/03/27 04:09:20;;;;;;;16.40;11.50;;;;;;;-0.97;60.79;99304.84;105485;1284;24418;-82
2022/03/27 04:11:48;;;;;;;13.00;10.80;;;;;;;-0.98;60.81;99307.02;105263;1284;22889;-83
2022/03/27 04:14:16;;;;;;;15.20;10.90;;;;;;;-0.96;60.93;99309.56;105215;1284;22704;-83
2022/03/27 04:16:44;;;;;;;17.50;15.40;;;;;;;-0.92;60.94;99311.14;105435;1284;22714;-84
2022/03/27 04:19:13;;;;;;;28.20;23.90;;;;;;;-0.91;61.07;99310.50;105619;1284;25945;-84
2022/03/27 04:21:42;;;;;;;26.30;16.30;;;;;;;-0.93;61.29;99312.80;105762;1284;22558;-82
2022/03/27 04:24:10;;;;;;;15.30;13.70;;;;;;;-0.95;61.21;99314.02;105416;1284;23081;-82
2022/03/27 04:26:41;;;;;;;20.70;15.90;;;;;;;-0.98;61.55;99314.02;105299;1284;22691;-80
2022/03/27 04:29:12;;;;;;;17.60;13.20;;;;;;;-0.99;61.68;99322.56;105341;1284;22778;-82
2022/03/27 04:31:41;;;;;;;14.40;12.70;;;;;;;-1.00;61.57;99325.20;105475;1284;25657;-81
2022/03/27 04:34:09;;;;;;;19.40;15.80;;;;;;;-1.03;61.51;99327.83;105418;1284;23315;-81
2022/03/27 04:36:37;;;;;;;17.40;14.40;;;;;;;-1.04;61.53;99330.12;105508;1284;22720;-82
2022/03/27 04:39:05;;;;;;;15.30;12.80;;;;;;;-1.06;61.48;99332.63;105626;1284;25309;-82
2022/03/27 04:41:34;;;;;;;18.50;14.80;;;;;;;-1.08;61.60;99337.45;105745;1284;24444;-81
2022/03/27 04:44:03;;;;;;;15.50;12.30;;;;;;;-1.10;61.40;99340.39;105350;1284;22718;-82
2022/03/27 04:46:31;;;;;;;25.40;22.70;;;;;;;-1.12;61.54;99342.98;105317;1284;24397;-81
2022/03/27 04:49:00;;;;;;;34.70;29.20;;;;;;;-1.13;61.66;99345.20;105381;1284;26709;-81
2022/03/27 04:51:27;;;;;;;36.70;31.30;;;;;;;-1.18;61.66;99343.73;105328;1284;22560;-83
2022/03/27 04:53:56;;;;;;;47.50;41.90;;;;;;;-1.16;61.66;99351.98;105264;1284;22556;-82
2022/03/27 04:56:24;;;;;;;38.70;31.40;;;;;;;-1.15;61.82;99354.20;105653;1284;25211;-82
2022/03/27 04:58:52;;;;;;;23.90;18.80;;;;;;;-1.14;61.82;99357.95;105393;1284;22570;-81
2022/03/27 05:01:20;;;;;;;46.80;36.00;;;;;;;-1.13;62.09;99359.28;105328;1284;24241;-80
2022/03/27 05:03:49;;;;;;;54.50;43.40;;;;;;;-1.09;61.99;99361.73;105289;1284;22562;-81
2022/03/27 05:06:18;;;;;;;31.90;23.50;;;;;;;-1.01;62.37;99359.05;105362;1284;22632;-81
2022/03/27 05:08:46;;;;;;;27.10;19.90;;;;;;;-0.92;62.57;99361.73;105361;1283;25352;-81
2022/03/27 05:11:13;;;;;;;24.50;18.70;;;;;;;-0.82;62.58;99361.11;105380;1284;24359;-81
2022/03/27 05:13:41;;;;;;;19.00;14.90;;;;;;;-0.76;62.41;99358.23;105444;1284;24274;-81
2022/03/27 05:16:09;;;;;;;17.60;14.10;;;;;;;-0.70;62.48;99360.15;105339;1284;23693;-80
2022/03/27 05:18:37;;;;;;;17.90;13.00;;;;;;;-0.64;62.41;99362.77;105421;1284;23932;-81
2022/03/27 05:21:05;;;;;;;19.90;14.70;;;;;;;-0.59;62.72;99364.77;105452;1284;22554;-80
2022/03/27 05:23:34;;;;;;;17.70;13.40;;;;;;;-0.54;62.66;99368.66;105472;1284;25428;-80
2022/03/27 05:26:02;;;;;;;14.30;11.10;;;;;;;-0.47;62.37;99371.96;105356;1284;24432;-81
2022/03/27 05:28:32;;;;;;;17.50;13.50;;;;;;;-0.41;62.68;99375.23;105449;1284;23992;-84
2022/03/27 05:31:01;;;;;;;18.70;13.70;;;;;;;-0.33;62.56;99376.57;105299;1286;22712;-82
2022/03/27 05:33:29;;;;;;;16.10;11.30;;;;;;;-0.27;62.40;99375.27;105373;1284;22705;-83
2022/03/27 05:35:56;;;;;;;24.80;16.00;;;;;;;-0.21;62.52;99378.94;105388;1284;22747;-83
2022/03/27 05:38:24;;;;;;;19.70;14.90;;;;;;;-0.15;62.54;99377.35;105298;1285;24023;-79
2022/03/27 05:40:52;;;;;;;19.80;15.10;;;;;;;-0.09;62.52;99382.52;105429;1284;22716;-80
2022/03/27 05:43:20;;;;;;;20.00;14.80;;;;;;;-0.02;62.54;99386.38;105432;1284;22556;-81
2022/03/27 05:45:48;;;;;;;15.90;13.80;;;;;;;0.06;62.52;99393.36;105412;1284;24412;-83
2022/03/27 05:48:16;;;;;;;19.60;16.80;;;;;;;0.14;62.61;99398.05;107307;1284;22656;-79
2022/03/27 05:50:44;;;;;;;28.10;24.40;;;;;;;0.22;62.51;99395.05;108644;1284;22584;-79
2022/03/27 05:53:12;;;;;;;24.30;21.10;;;;;;;0.32;62.57;99393.40;108741;1284;22992;-80
2022/03/27 05:55:40;;;;;;;22.60;19.80;;;;;;;0.43;62.61;99400.27;108480;1284;22559;-80
2022/03/27 05:58:08;;;;;;;20.90;16.40;;;;;;;0.55;62.60;99403.59;108644;1284;22649;-80
2022/03/27 06:00:36;;;;;;;17.20;14.30;;;;;;;0.67;62.50;99405.89;108618;1284;22635;-81
2022/03/27 06:03:04;;;;;;;17.20;14.10;;;;;;;0.80;62.65;99413.05;108315;1284;22560;-81
2022/03/27 06:05:33;;;;;;;19.40;15.50;;;;;;;0.95;62.72;99416.70;105286;1285;25440;-82
2022/03/27 06:08:01;;;;;;;22.10;19.40;;;;;;;1.07;62.59;99416.62;105308;1284;22588;-83
2022/03/27 06:10:32;;;;;;;17.10;13.70;;;;;;;1.21;62.62;99418.04;105464;1283;22800;-83
2022/03/27 06:13:01;;;;;;;15.70;11.80;;;;;;;1.34;62.35;99418.80;105431;1284;25339;-82
2022/03/27 06:15:30;;;;;;;11.90;10.00;;;;;;;1.47;62.40;99420.83;105369;1284;22727;-82
2022/03/27 06:17:59;;;;;;;14.00;12.20;;;;;;;1.62;62.41;99424.86;105344;1284;24238;-82
2022/03/27 06:20:30;;;;;;;13.70;9.60;;;;;;;1.77;62.27;99431.33;105385;1284;22712;-81
2022/03/27 06:22:58;;;;;;;14.20;8.70;;;;;;;1.93;62.26;99433.98;105369;1284;22697;-81
2022/03/27 06:25:28;;;;;;;9.60;6.90;;;;;;;2.08;61.95;99428.08;105328;1284;22742;-81
2022/03/27 06:27:57;;;;;;;8.70;6.00;;;;;;;2.23;61.87;99426.48;105471;1284;22610;-81
2022/03/27 06:30:28;;;;;;;8.50;5.10;;;;;;;2.32;61.62;99413.85;105879;1284;22643;-81
2022/03/27 06:33:00;;;;;;;14.80;10.80;;;;;;;2.52;61.29;99419.38;106801;1284;25380;-84
2022/03/27 06:35:29;;;;;;;19.70;14.20;;;;;;;2.67;61.45;99418.88;105606;1285;22635;-81
2022/03/27 06:37:58;;;;;;;17.50;14.30;;;;;;;2.80;61.27;99419.73;105502;1284;22701;-82
2022/03/27 06:40:26;;;;;;;15.80;12.40;;;;;;;2.91;61.16;99420.92;105467;1284;22749;-84
2022/03/27 06:42:54;;;;;;;15.00;12.30;;;;;;;3.01;61.08;99425.97;105340;1284;24055;-82
2022/03/27 06:45:25;;;;;;;14.90;12.30;;;;;;;3.10;60.98;99430.50;105355;1284;22576;-82
2022/03/27 06:47:54;;;;;;;18.90;12.80;;;;;;;3.21;60.83;99439.79;105337;1284;24265;-82
2022/03/27 06:50:23;;;;;;;17.70;12.60;;;;;;;3.34;60.81;99442.34;105343;1286;24252;-83
2022/03/27 06:52:52;;;;;;;14.80;11.90;;;;;;;3.45;60.70;99443.05;105403;1284;22632;-81
2022/03/27 06:55:21;;;;;;;16.80;12.00;;;;;;;3.56;60.49;99444.70;105413;1284;25569;-81
2022/03/27 06:57:49;;;;;;;13.00;10.20;;;;;;;3.67;60.28;99443.73;105350;1284;25390;-81
2022/03/27 07:03:06;;;;;;;12.70;9.00;;;;;;;3.84;59.63;99440.37;105193;1284;22681;-81
2022/03/27 07:05:41;;;;;;;13.90;9.20;;;;;;;3.95;59.68;99443.91;105347;1284;23280;-82
2022/03/27 07:08:12;;;;;;;15.70;8.30;;;;;;;4.05;59.75;99446.80;105332;1284;24472;-83
2022/03/27 07:10:42;;;;;;;8.80;5.80;;;;;;;4.18;59.47;99452.05;105389;1284;24275;-83
2022/03/27 07:13:12;;;;;;;4.80;3.60;;;;;;;4.29;58.83;99460.47;105356;1284;22551;-83
2022/03/27 07:15:42;;;;;;;8.00;4.60;;;;;;;4.37;57.61;99462.04;105262;1284;24444;-84
2022/03/27 07:18:11;;;;;;;8.80;7.00;;;;;;;4.40;57.12;99458.73;105378;1284;22766;-83
2022/03/27 07:20:41;;;;;;;6.30;4.90;;;;;;;4.50;57.48;99462.13;105329;1284;25428;-82
2022/03/27 07:23:13;;;;;;;7.10;5.10;;;;;;;4.60;57.17;99460.38;105341;1284;25381;-80
2022/03/27 07:25:43;;;;;;;8.60;6.70;;;;;;;4.69;56.91;99460.66;105360;1285;23783;-83
2022/03/27 07:28:13;;;;;;;6.40;4.80;;;;;;;4.79;55.64;99457.84;105428;1284;23351;-82
2022/03/27 07:30:43;;;;;;;5.40;4.10;;;;;;;4.81;55.21;99461.39;105423;1284;22717;-82
2022/03/27 07:33:12;;;;;;;5.10;3.30;;;;;;;4.90;56.12;99458.91;105422;1284;22701;-82
2022/03/27 07:35:40;;;;;;;7.30;5.20;;;;;;;4.99;56.00;99463.61;105383;1284;22707;-83
2022/03/27 07:38:09;;;;;;;7.70;5.00;;;;;;;5.07;55.39;99462.81;105380;1284;22708;-81
2022/03/27 07:40:38;;;;;;;6.90;4.40;;;;;;;5.17;55.37;99466.35;105861;1284;22880;-82
2022/03/27 07:43:06;;;;;;;5.10;3.50;;;;;;;5.23;54.31;99470.17;105994;1284;22584;-80
2022/03/27 07:45:35;;;;;;;5.60;3.60;;;;;;;5.30;54.89;99477.73;105903;1284;22767;-81
2022/03/27 07:48:04;;;;;;;5.00;3.10;;;;;;;5.35;54.55;99482.89;105398;1284;22590;-81
2022/03/27 07:50:32;;;;;;;5.50;4.00;;;;;;;5.39;54.12;99484.45;105305;1285;24362;-81
2022/03/27 07:53:01;;;;;;;5.60;3.80;;;;;;;5.41;53.74;99486.39;105365;1284;23296;-81
2022/03/27 07:55:30;;;;;;;4.80;3.40;;;;;;;5.48;54.14;99488.11;105274;1284;25485;-81
2022/03/27 07:57:58;;;;;;;4.20;3.00;;;;;;;5.56;53.33;99489.49;105261;1284;24446;-81
2022/03/27 08:00:29;;;;;;;5.00;3.80;;;;;;;5.58;53.40;99481.35;105390;1284;25414;-81
2022/03/27 08:02:58;;;;;;;6.30;4.20;;;;;;;5.62;53.14;99479.48;105346;1284;22663;-81
2022/03/27 08:05:27;;;;;;;6.40;3.30;;;;;;;5.68;53.13;99480.63;105444;1284;22685;-82
2022/03/27 08:07:55;;;;;;;5.50;3.40;;;;;;;5.74;52.88;99482.37;105411;1284;22563;-81
2022/03/27 08:10:24;;;;;;;8.70;5.80;;;;;;;5.78;51.99;99487.23;105430;1284;25253;-81
2022/03/27 08:12:52;;;;;;;8.80;6.90;;;;;;;5.82;51.23;99490.95;105423;1284;22692;-82
2022/03/27 08:15:21;;;;;;;7.70;5.30;;;;;;;5.87;51.52;99487.09;105176;1285;25533;-81
2022/03/27 08:17:53;;;;;;;8.70;4.70;;;;;;;5.96;52.00;99489.17;105848;1284;24453;-81
2022/03/27 08:20:25;;;;;;;8.40;7.30;;;;;;;6.08;52.00;99494.35;105540;1284;22674;-81
2022/03/27 08:22:54;;;;;;;8.70;7.80;;;;;;;6.20;51.86;99491.10;105487;1284;24242;-82
2022/03/27 08:28:11;;;;;;;11.00;5.70;;;;;;;6.38;50.91;99498.31;105360;1284;22879;-83
2022/03/27 08:30:39;;;;;;;4.90;3.50;;;;;;;6.45;50.49;99497.84;105434;1284;25427;-82
2022/03/27 08:33:08;;;;;;;5.60;3.50;;;;;;;6.44;50.54;99495.73;105441;1284;24092;-82
2022/03/27 08:35:38;;;;;;;6.10;3.90;;;;;;;6.36;50.29;99489.56;105398;1284;22666;-82
2022/03/27 08:38:06;;;;;;;4.70;3.40;;;;;;;6.36;50.33;99489.33;105353;1284;22579;-82
2022/03/27 08:40:38;;;;;;;5.60;3.40;;;;;;;6.41;50.37;99487.19;105364;1284;23553;-83
2022/03/27 08:43:14;;;;;;;4.40;3.10;;;;;;;6.44;50.13;99486.18;105487;1284;24432;-83
2022/03/27 08:45:43;;;;;;;9.20;5.80;;;;;;;6.48;50.11;99484.46;105390;1284;24099;-82
2022/03/27 08:48:12;;;;;;;5.10;4.00;;;;;;;6.55;49.53;99481.53;105346;1284;25374;-83
2022/03/27 08:50:55;;;;;;;5.80;3.90;;;;;;;6.62;49.23;99474.48;105438;1283;24303;-83
2022/03/27 08:53:30;;;;;;;6.30;3.80;;;;;;;6.68;49.11;99475.91;105425;1284;23940;-82
2022/03/27 08:56:02;;;;;;;5.30;3.60;;;;;;;6.72;48.74;99470.38;105414;1284;22534;-82
2022/03/27 08:58:42;;;;;;;5.90;3.90;;;;;;;6.77;47.10;99471.61;105360;1284;25431;-81
2022/03/27 09:01:11;;;;;;;9.10;4.20;;;;;;;6.84;47.59;99468.02;105498;1284;24243;-81
2022/03/27 09:03:39;;;;;;;6.30;3.80;;;;;;;6.91;47.42;99466.11;105388;1284;22554;-82
2022/03/27 09:06:08;;;;;;;4.80;3.40;;;;;;;6.98;47.89;99461.15;105386;1284;22564;-82
2022/03/27 09:08:38;;;;;;;4.30;3.30;;;;;;;7.02;46.68;99460.23;105428;1285;22572;-80
2022/03/27 09:11:06;;;;;;;5.90;3.90;;;;;;;7.08;46.33;99458.15;105410;1284;25429;-82
2022/03/27 09:13:36;;;;;;;5.80;4.20;;;;;;;7.12;46.24;99455.24;105478;1284;24308;-81
2022/03/27 09:16:07;;;;;;;5.10;3.40;;;;;;;7.15;45.84;99455.78;105430;1284;24248;-81
2022/03/27 09:18:49;;;;;;;4.00;3.30;;;;;;;7.18;44.78;99456.10;105405;1285;23225;-82
2022/03/27 09:21:22;;;;;;;5.80;3.40;;;;;;;7.19;44.89;99451.98;105366;1284;25537;-81
2022/03/27 09:23:57;;;;;;;5.90;3.30;;;;;;;7.22;45.12;99452.33;105343;1284;24452;-81
2022/03/27 09:26:26;;;;;;;5.70;3.60;;;;;;;7.23;44.34;99450.14;104945;1284;22531;-82
2022/03/27 09:29:05;;;;;;;4.40;3.00;;;;;;;7.22;44.49;99445.02;105406;1284;22626;-81
2022/03/27 09:31:33;;;;;;;4.20;3.40;;;;;;;7.27;44.31;99440.26;105401;1284;24233;-80
2022/03/27 09:34:02;;;;;;;4.80;3.70;;;;;;;7.37;44.80;99438.94;105395;1284;22556;-82
2022/03/27 09:36:40;;;;;;;4.00;3.10;;;;;;;7.52;43.90;99436.45;105432;1283;24482;-82
2022/03/27 09:39:20;;;;;;;4.60;3.40;;;;;;;7.68;44.56;99435.48;105404;1284;22570;-82
2022/03/27 09:41:51;;;;;;;5.00;3.50;;;;;;;7.82;44.63;99438.54;105471;1283;22599;-82
2022/03/27 09:44:29;;;;;;;5.10;3.90;;;;;;;7.89;42.34;99438.23;105450;1284;25926;-81
2022/03/27 09:47:04;;;;;;;6.10;4.20;;;;;;;7.91;42.34;99434.40;105480;1284;22669;-82
2022/03/27 09:49:32;;;;;;;5.40;4.00;;;;;;;7.95;43.09;99428.72;105435;1283;25367;-80
2022/03/27 09:52:14;;;;;;;4.00;3.00;;;;;;;8.01;43.43;99429.23;105439;1284;22564;-81
2022/03/27 09:55:03;;;;;;;11.40;3.90;;;;;;;8.15;43.25;99423.61;105422;1284;24445;-82
2022/03/27 09:57:35;;;;;;;4.50;3.70;;;;;;;8.32;43.33;99425.43;105427;1284;22558;-78
2022/03/27 10:00:13;;;;;;;5.90;3.40;;;;;;;8.44;43.03;99426.85;105621;1284;23125;-82
2022/03/27 10:03:32;;;;;;;5.30;3.80;;;;;;;8.54;42.04;99425.34;105413;1284;22578;-83
2022/03/27 10:06:03;;;;;;;5.20;3.40;;;;;;;8.63;41.70;99431.33;105363;1284;25472;-82
2022/03/27 10:08:31;;;;;;;8.20;3.20;;;;;;;8.65;41.01;99424.64;105409;1285;23947;-83
2022/03/27 10:11:00;;;;;;;4.90;3.50;;;;;;;8.59;40.33;99421.42;105428;1285;24384;-82
2022/03/27 10:13:31;;;;;;;6.80;4.00;;;;;;;8.53;40.33;99419.15;105402;1284;22569;-80
2022/03/27 10:15:59;;;;;;;5.70;3.60;;;;;;;8.49;40.51;99422.91;105381;1284;22567;-82
2022/03/27 10:18:27;;;;;;;7.20;3.80;;;;;;;8.52;40.54;99421.23;105422;1284;22655;-82
2022/03/27 10:20:58;;;;;;;4.80;3.20;;;;;;;8.63;39.28;99411.75;105412;1284;23291;-81
2022/03/27 10:23:28;;;;;;;5.40;3.50;;;;;;;8.66;39.50;99412.75;105364;1284;25260;-81
2022/03/27 10:26:01;;;;;;;5.90;3.60;;;;;;;8.62;38.50;99410.40;105419;1284;22751;-82
2022/03/27 10:28:30;;;;;;;4.40;3.40;;;;;;;8.62;38.97;99405.52;105433;1284;26621;-81
2022/03/27 10:30:59;;;;;;;5.50;3.70;;;;;;;8.68;38.37;99403.02;105424;1284;25367;-82
2022/03/27 10:33:29;;;;;;;6.40;4.20;;;;;;;8.75;39.30;99395.67;105494;1284;22575;-81
2022/03/27 10:36:05;;;;;;;6.50;3.80;;;;;;;8.92;39.49;99392.17;105409;1283;22711;-81
2022/03/27 10:38:33;;;;;;;5.00;3.40;;;;;;;9.08;39.87;99386.33;105428;1284;24438;-82
2022/03/27 10:41:20;;;;;;;4.30;3.70;;;;;;;9.24;39.23;99391.02;105433;1284;22674;-80
2022/03/27 10:44:37;;;;;;;5.90;3.80;;;;;;;9.29;38.46;99384.67;105460;1284;23917;-82
2022/03/27 10:47:19;;;;;;;6.20;3.60;;;;;;;9.39;38.96;99384.02;104758;1290;24383;-81
2022/03/27 10:50:04;;;;;;;5.70;3.10;;;;;;;9.52;38.90;99376.17;104679;1290;22572;-81
2022/03/27 10:52:57;;;;;;;4.70;3.50;;;;;;;9.69;39.18;99374.92;104670;1290;24301;-81
2022/03/27 10:55:37;;;;;;;4.30;3.30;;;;;;;9.83;38.85;99367.18;104640;1291;23146;-83
2022/03/27 10:58:37;;;;;;;4.70;3.10;;;;;;;9.94;36.84;99370.42;104801;1291;23409;-81
2022/03/27 11:01:05;;;;;;;4.70;3.50;;;;;;;9.91;36.98;99371.01;104645;1291;22780;-80
2022/03/27 11:03:43;;;;;;;5.60;3.50;;;;;;;9.92;36.80;99366.65;104643;1291;22563;-80
2022/03/27 11:06:26;;;;;;;3.90;3.10;;;;;;;9.90;37.06;99364.75;104725;1290;23472;-82
2022/03/27 11:08:57;;;;;;;10.20;3.50;;;;;;;9.96;36.88;99358.17;104787;1290;22601;-83
2022/03/27 11:11:53;;;;;;;5.00;3.30;;;;;;;10.12;37.52;99349.82;104990;1290;22579;-82
2022/03/27 11:14:24;;;;;;;5.10;3.20;;;;;;;10.38;37.53;99346.50;104610;1290;22737;-82
2022/03/27 11:17:04;;;;;;;4.80;3.20;;;;;;;10.60;37.62;99348.48;104715;1290;24423;-81
2022/03/27 11:19:59;;;;;;;6.80;3.30;;;;;;;10.72;36.14;99342.72;104790;1290;23312;-81
2022/03/27 11:22:47;;;;;;;6.70;3.50;;;;;;;10.84;37.05;99337.15;105206;1286;24448;-84
2022/03/27 11:25:28;;;;;;;6.00;3.60;;;;;;;10.96;36.87;99338.48;105424;1284;23641;-81
2022/03/27 11:28:17;;;;;;;4.50;2.70;;;;;;;11.12;36.55;99336.63;105373;1283;25410;-83
2022/03/27 11:30:47;;;;;;;5.00;3.50;;;;;;;11.14;34.20;99332.20;105560;1284;26531;-83
2022/03/27 11:33:31;;;;;;;5.70;4.00;;;;;;;11.08;34.27;99334.19;105574;1284;22550;-83
2022/03/27 11:36:05;;;;;;;6.10;3.50;;;;;;;10.95;31.58;99326.65;105556;1285;25641;-83
2022/03/27 11:38:35;;;;;;;5.70;3.40;;;;;;;10.86;33.26;99322.33;105477;1284;22559;-82
2022/03/27 11:41:24;;;;;;;4.70;3.40;;;;;;;10.82;34.32;99316.69;106091;1284;22637;-81
2022/03/27 11:43:54;;;;;;;5.40;3.60;;;;;;;11.03;35.17;99309.04;105562;1285;23268;-84
2022/03/27 11:46:27;;;;;;;4.50;3.00;;;;;;;11.26;34.49;99305.25;106255;1284;22511;-81
2022/03/27 11:49:00;;;;;;;6.10;3.60;;;;;;;11.42;33.07;99300.93;108801;1283;22592;-84
2022/03/27 11:51:28;;;;;;;6.50;3.70;;;;;;;11.36;31.27;99297.58;108524;1284;23087;-82
2022/03/27 11:53:57;;;;;;;6.30;3.40;;;;;;;11.31;33.06;99292.34;107331;1285;22581;-82
2022/03/27 11:56:25;;;;;;;6.50;3.60;;;;;;;11.44;33.56;99292.30;105376;1285;22568;-82
2022/03/27 11:59:09;;;;;;;6.60;3.40;;;;;;;11.60;33.31;99287.64;105460;1284;22572;-82
2022/03/27 12:01:37;;;;;;;7.40;4.00;;;;;;;11.85;33.83;99288.98;105638;1284;22551;-84
2022/03/27 12:04:06;;;;;;;6.80;3.90;;;;;;;11.99;33.38;99285.73;105645;1284;22715;-83
2022/03/27 12:06:35;;;;;;;6.20;3.70;;;;;;;12.11;33.22;99280.29;105609;1285;22725;-82
2022/03/27 12:09:03;;;;;;;6.60;3.60;;;;;;;12.16;32.53;99282.75;106931;1285;23959;-84
2022/03/27 12:11:31;;;;;;;7.00;4.20;;;;;;;12.30;32.89;99279.36;105917;1286;25424;-84